Airfield :
LOGIN :

Register | Disclaimer

   EN    FR    IT 

 










Legend :    VFR   Marginal VFR   IFR   Intensive IFR   Very Intensive IFR
Visi :
Ceiling :
>= 8 km
>= 3000ft
5 to 8 km
1000 to 3000 ft
1500m to 5 km
500 to 1000 ft
800 to 1500m
200 to 500 ft
< 800m
< 200 ft
Symbols :   Thunderstorms  Fog  Heavy snow  Heavy precipitations  Wind > 20 kt
SIGMETs :     Misc.  Thunderstorms  Icing  Turbulence  Mountain Waves  Volcanic Ashes






- Airport Elevation : 1302 ft
- IATA code : GNB


LFLS - Grenoble / St. Geoirs

CURRENT METAR :
  • 160430Z AUTO 08007KT CAVOK 06/06 Q1018 TEMPO 0800 BCFG BKN003

EXPIRED METARs :
  • 160400Z AUTO 08007KT 9999 FEW005 06/06 Q1018 TEMPO 0800 BCFG BKN003
  • 160330Z AUTO 07009KT CAVOK 07/07 Q1018 TEMPO 0800 BCFG BKN003
  • 160300Z AUTO 08010KT 6000 BKN004 08/08 Q1018
  • 160230Z AUTO 08011KT 2300 BR VV/// 08/08 Q1018
  • 160200Z AUTO 08010KT 1900 0700 R09/1400D R27/1100D BCFG VV/// 08/08 Q1018

TAF TAF LFLS
Valid from the 16 at 03:00 until the 17 at 03:00 UTC


160200Z 1603/1703 09008KT 7000 SCT005
TEMPO 1603/1607 BKN003
PROB30
TEMPO 1603/1607 0800 BCFG
BECMG 1607/1608 CAVOK
ATIS : +33 4 76 65 55 89



MET'MAP, your aeronautical weather chart ! - Copyright ORBIFLY December 2007 - Disclaimer

ORBIFLY MET'MAP TEAM :

Programming & Development : Alexandra Zaïnal
Concept & Development : Baudouin d'Aumeries
Co-Development & Prog : Marc-Olivier Méhu
Technical & hardware support : Manuel Goepfert

Contact : metmap@orbifly.com




SOURCES & CREDITS :

   NOAA